createdAt,value
2023-04-26T00:01:34.893Z,86936.72
2023-04-26T00:04:02.536Z,86937.81
2023-04-26T00:06:29.997Z,86933.50
2023-04-26T00:08:57.282Z,86928.63
2023-04-26T00:11:24.501Z,86926.78
2023-04-26T00:13:52.254Z,86925.59
2023-04-26T00:16:19.581Z,86930.44
2023-04-26T00:18:46.878Z,86928.56
2023-04-26T00:21:14.419Z,86923.28
2023-04-26T00:23:41.772Z,86929.19
2023-04-26T00:26:09.039Z,86928.72
2023-04-26T00:28:36.392Z,86933.59
2023-04-26T00:31:03.622Z,86926.13
2023-04-26T00:33:30.916Z,86917.81
2023-04-26T00:35:58.309Z,86922.59
2023-04-26T00:38:25.554Z,86922.88
2023-04-26T00:40:52.751Z,86916.84
2023-04-26T00:43:20.039Z,86916.41
2023-04-26T00:45:47.515Z,86916.72
2023-04-26T00:48:16.400Z,86917.47
2023-04-26T00:50:44.297Z,86923.03
2023-04-26T00:53:12.916Z,86923.50
2023-04-26T00:55:41.738Z,86916.84
2023-04-26T00:58:09.568Z,86921.31
2023-04-26T01:00:37.087Z,86923.91
2023-04-26T01:03:04.661Z,86919.06
2023-04-26T01:05:32.342Z,86915.34
2023-04-26T01:08:00.450Z,86918.28
2023-04-26T01:10:28.927Z,86918.69
2023-04-26T01:12:57.289Z,86920.63
2023-04-26T01:15:26.494Z,86929.47
2023-04-26T01:17:54.044Z,86930.38
2023-04-26T01:20:21.268Z,86933.06
2023-04-26T01:22:48.566Z,86924.41
2023-04-26T01:25:16.889Z,86925.56
2023-04-26T01:27:44.300Z,86925.88
2023-04-26T01:30:12.438Z,86935.03
2023-04-26T01:32:39.757Z,86926.13
2023-04-26T01:35:07.543Z,86930.81
2023-04-26T01:37:34.833Z,86935.59
2023-04-26T01:40:02.067Z,86934.13
2023-04-26T01:42:29.339Z,86934.84
2023-04-26T01:44:56.721Z,86938.47
2023-04-26T01:47:24.359Z,86945.03
2023-04-26T01:49:51.713Z,86937.56
2023-04-26T01:52:18.954Z,86944.63
2023-04-26T01:54:46.191Z,86948.09
2023-04-26T01:57:13.426Z,86953.97
2023-04-26T01:59:40.931Z,86955.06
2023-04-26T02:02:08.374Z,86951.28
2023-04-26T02:04:36.349Z,86955.75
2023-04-26T02:07:03.606Z,86955.03
2023-04-26T02:09:30.858Z,86946.97
2023-04-26T02:11:58.127Z,86955.25
2023-04-26T02:14:25.334Z,86958.72
2023-04-26T02:16:52.600Z,86948.25
2023-04-26T02:19:19.970Z,86958.47
2023-04-26T02:21:58.503Z,86960.88
2023-04-26T02:24:26.214Z,86959.03
2023-04-26T02:26:53.512Z,86968.69
2023-04-26T02:29:26.890Z,86965.00
2023-04-26T02:31:58.623Z,86964.66
2023-04-26T02:34:26.261Z,86956.00
2023-04-26T02:36:53.520Z,86959.03
2023-04-26T02:39:20.757Z,86966.59
2023-04-26T02:41:47.983Z,86960.25
2023-04-26T02:44:15.312Z,86970.44
2023-04-26T02:46:42.773Z,86964.13
2023-04-26T02:49:10.179Z,86968.66
2023-04-26T02:51:37.779Z,86969.34
2023-04-26T02:54:06.959Z,86961.13
2023-04-26T02:56:34.508Z,86964.47
2023-04-26T02:59:01.765Z,86965.22
2023-04-26T03:01:29.075Z,86969.00
2023-04-26T03:03:56.457Z,86964.88
2023-04-26T03:06:23.883Z,86964.97
2023-04-26T03:08:51.395Z,86971.25
2023-04-26T03:11:18.785Z,86969.41
2023-04-26T03:13:45.980Z,86964.59
2023-04-26T03:16:13.447Z,86968.66
2023-04-26T03:18:40.782Z,86973.53
2023-04-26T03:21:08.091Z,86976.88
2023-04-26T03:23:35.538Z,86967.63
2023-04-26T03:26:02.997Z,86972.09
2023-04-26T03:28:30.693Z,86969.41
2023-04-26T03:30:59.675Z,86965.63
2023-04-26T03:33:27.482Z,86971.44
2023-04-26T03:35:54.719Z,86965.16
2023-04-26T03:38:21.958Z,86965.56
2023-04-26T03:40:49.478Z,86972.56
2023-04-26T03:43:16.691Z,86970.03
2023-04-26T03:45:48.065Z,86972.63
2023-04-26T03:48:16.056Z,86970.69
2023-04-26T03:50:43.716Z,86968.78
2023-04-26T03:53:15.193Z,86970.28
2023-04-26T03:55:42.571Z,86974.72
2023-04-26T03:58:09.944Z,86977.03
2023-04-26T04:00:41.381Z,86973.66
2023-04-26T04:03:08.897Z,86979.22
2023-04-26T04:05:36.729Z,86970.53
2023-04-26T04:08:04.898Z,86971.31
2023-04-26T04:10:32.228Z,86973.84
2023-04-26T04:12:59.679Z,86979.47
2023-04-26T04:15:27.143Z,86982.06
2023-04-26T04:17:54.669Z,86983.56
2023-04-26T04:20:22.036Z,86992.50
2023-04-26T04:22:49.349Z,86988.66
2023-04-26T04:25:16.587Z,86985.03
2023-04-26T04:27:43.891Z,86994.09
2023-04-26T04:30:11.766Z,86992.66
2023-04-26T04:32:39.007Z,86988.19
2023-04-26T04:35:07.543Z,86988.94
2023-04-26T04:37:34.893Z,86991.63
2023-04-26T04:40:02.410Z,86990.53
2023-04-26T04:42:29.686Z,86999.88
2023-04-26T04:44:57.204Z,86995.00
2023-04-26T04:47:24.520Z,87003.97
2023-04-26T04:49:51.796Z,86999.19
2023-04-26T04:52:19.270Z,87004.72
2023-04-26T04:54:46.726Z,87000.69
2023-04-26T04:57:14.263Z,87005.56
2023-04-26T04:59:41.909Z,87009.34
2023-04-26T05:02:09.243Z,87008.88
2023-04-26T05:04:37.774Z,87006.41
2023-04-26T05:07:05.448Z,87017.25
2023-04-26T05:09:32.675Z,87017.25
2023-04-26T05:11:59.955Z,87015.81
2023-04-26T05:14:27.639Z,87019.59
2023-04-26T05:16:55.023Z,87025.91
2023-04-26T05:19:22.773Z,87027.47
2023-04-26T05:21:50.031Z,87024.47
2023-04-26T05:24:17.286Z,87030.03
2023-04-26T05:26:44.600Z,87037.56
2023-04-26T05:29:11.988Z,87030.09
2023-04-26T05:31:39.269Z,87032.44
2023-04-26T05:34:06.526Z,87040.00
2023-04-26T05:36:33.858Z,87045.28
2023-04-26T05:39:01.131Z,87048.72
2023-04-26T05:41:28.386Z,87046.09
2023-04-26T05:43:55.705Z,87042.88
2023-04-26T05:46:23.352Z,87045.22
2023-04-26T05:48:50.706Z,87043.38
2023-04-26T05:51:17.890Z,87043.53
2023-04-26T05:53:45.124Z,87041.06
2023-04-26T05:56:12.374Z,87044.13
2023-04-26T05:58:39.727Z,87044.22
2023-04-26T06:01:06.982Z,87047.28
2023-04-26T06:03:34.629Z,87042.28
2023-04-26T06:06:02.313Z,87047.22
2023-04-26T06:08:29.743Z,87047.06
2023-04-26T06:10:56.985Z,87035.25
2023-04-26T06:13:24.365Z,87040.00
2023-04-26T06:15:54.670Z,87032.69
2023-04-26T06:18:22.073Z,87036.09
2023-04-26T06:20:49.414Z,87029.25
2023-04-26T06:25:44.192Z,87036.34
2023-04-26T06:28:13.071Z,87029.84
2023-04-26T06:30:40.434Z,87028.81
2023-04-26T06:33:07.735Z,87033.75
2023-04-26T06:35:43.119Z,87035.09
2023-04-26T06:38:10.420Z,87032.66
2023-04-26T06:40:37.638Z,87032.38
2023-04-26T06:43:05.104Z,87035.91
2023-04-26T06:45:32.650Z,87036.03
2023-04-26T06:47:59.993Z,87038.34
2023-04-26T06:50:27.864Z,87029.50
2023-04-26T06:52:55.440Z,87031.28
2023-04-26T06:55:22.931Z,87039.31
2023-04-26T06:57:50.788Z,87030.81
2023-04-26T07:00:18.228Z,87035.13
2023-04-26T07:02:46.119Z,87033.59
2023-04-26T07:05:13.878Z,87033.75
2023-04-26T07:07:41.357Z,87024.38
2023-04-26T07:10:10.448Z,87025.44
2023-04-26T07:12:37.756Z,87025.59
2023-04-26T07:15:05.866Z,87028.22
2023-04-26T07:17:33.462Z,87023.28
2023-04-26T07:20:00.895Z,87022.31
2023-04-26T07:22:28.645Z,87023.47
2023-04-26T07:24:55.997Z,87020.91
2023-04-26T07:27:24.153Z,87020.53
2023-04-26T07:29:54.985Z,87023.97
2023-04-26T07:32:22.672Z,87025.19
2023-04-26T07:34:49.959Z,87020.69
2023-04-26T07:37:17.270Z,87018.13
2023-04-26T07:39:44.690Z,87013.69
2023-04-26T07:42:12.191Z,87015.66
2023-04-26T07:44:39.434Z,87015.78
2023-04-26T07:47:13.015Z,87013.56
2023-04-26T07:49:40.685Z,87008.38
2023-04-26T07:52:09.697Z,87014.06
2023-04-26T07:54:37.069Z,87013.03
2023-04-26T07:57:04.518Z,87012.78
2023-04-26T07:59:32.415Z,87016.97
2023-04-26T08:01:59.638Z,87011.69
2023-04-26T08:04:34.785Z,87010.53
2023-04-26T08:07:02.406Z,87011.31
2023-04-26T08:09:30.330Z,87008.69
2023-04-26T08:11:58.264Z,87007.59
2023-04-26T08:14:25.542Z,87011.00
2023-04-26T08:16:52.870Z,87015.13
2023-04-26T08:19:20.163Z,87020.34
2023-04-26T08:21:47.556Z,87021.13
2023-04-26T08:24:14.871Z,87018.59
2023-04-26T08:26:42.322Z,87024.94
2023-04-26T08:29:10.177Z,87021.22
2023-04-26T08:31:37.483Z,87026.19
2023-04-26T08:34:04.772Z,87023.63
2023-04-26T08:36:35.919Z,87027.41
2023-04-26T08:39:03.830Z,87031.91
2023-04-26T08:41:37.795Z,87028.97
2023-04-26T08:44:09.162Z,87024.53
2023-04-26T08:47:36.881Z,87019.28
2023-04-26T08:50:05.915Z,87015.47
2023-04-26T08:52:35.349Z,87018.50
2023-04-26T08:55:05.205Z,87008.75
2023-04-26T08:57:33.170Z,87016.28
2023-04-26T09:00:03.299Z,87009.16
2023-04-26T09:02:31.148Z,87010.69
2023-04-26T09:04:58.722Z,87009.59
2023-04-26T09:07:51.104Z,87010.38
2023-04-26T09:10:22.262Z,87002.09
2023-04-26T09:12:53.917Z,87002.47
2023-04-26T09:15:23.270Z,87003.22
2023-04-26T09:17:51.171Z,87003.59
2023-04-26T09:20:31.414Z,87008.50
2023-04-26T09:23:07.569Z,86998.75
2023-04-26T09:25:36.029Z,86991.59
2023-04-26T09:28:18.915Z,86990.47
2023-04-26T09:30:46.824Z,87001.72
2023-04-26T09:33:14.387Z,86993.09
2023-04-26T09:35:44.558Z,86993.47
2023-04-26T09:38:15.269Z,86992.75
2023-04-26T09:40:45.977Z,86991.25
2023-04-26T09:43:18.872Z,86983.34
2023-04-26T09:45:50.722Z,86984.09
2023-04-26T09:48:34.179Z,86984.47
2023-04-26T09:51:04.213Z,86984.06
2023-04-26T09:53:42.212Z,86974.28
2023-04-26T09:56:20.890Z,86975.81
2023-04-26T09:58:48.077Z,86978.03
2023-04-26T10:01:17.364Z,86967.13
2023-04-26T10:03:45.610Z,86976.88
2023-04-26T10:06:13.824Z,86979.88
2023-04-26T10:08:41.575Z,86979.09
2023-04-26T10:11:09.610Z,86979.09
2023-04-26T10:13:37.886Z,86977.16
2023-04-26T10:16:06.315Z,86972.31
2023-04-26T10:18:34.238Z,86970.72
2023-04-26T10:21:19.794Z,86968.84
2023-04-26T10:23:49.710Z,86959.38
2023-04-26T10:26:55.625Z,86967.31
2023-04-26T10:29:25.525Z,86965.81
2023-04-26T10:32:02.378Z,86959.38
2023-04-26T10:34:31.943Z,86954.09
2023-04-26T10:37:18.097Z,86958.97
2023-04-26T10:39:47.430Z,86950.59
2023-04-26T10:42:29.353Z,86947.94
2023-04-26T10:44:58.867Z,86960.28
2023-04-26T10:47:34.937Z,86953.06
2023-04-26T10:50:06.313Z,86953.31
2023-04-26T10:52:34.919Z,86941.84
2023-04-26T10:55:02.535Z,86937.69
2023-04-26T10:57:52.973Z,86937.59
2023-04-26T11:00:28.565Z,86933.59
2023-04-26T11:03:03.689Z,86924.34
2023-04-26T11:05:51.802Z,86923.41
2023-04-26T11:08:31.371Z,86922.22
2023-04-26T11:11:12.249Z,86927.22
2023-04-26T11:13:42.437Z,86918.81
2023-04-26T11:16:12.475Z,86924.19
2023-04-26T11:18:47.790Z,86922.88
2023-04-26T11:21:15.132Z,86916.16
2023-04-26T11:23:42.436Z,86919.63
2023-04-26T11:26:09.881Z,86909.69
2023-04-26T11:28:42.227Z,86907.81
2023-04-26T11:31:09.956Z,86895.94
2023-04-26T11:33:37.678Z,86898.44
2023-04-26T11:36:05.639Z,86901.28
2023-04-26T11:38:33.183Z,86899.72
2023-04-26T11:41:04.553Z,86899.66
2023-04-26T11:43:39.785Z,86900.16
2023-04-26T11:46:09.192Z,86898.94
2023-04-26T11:48:38.550Z,86894.09
2023-04-26T11:51:08.252Z,86904.44
2023-04-26T11:53:44.828Z,86892.97
2023-04-26T11:56:17.234Z,86891.25
2023-04-26T11:58:48.505Z,86889.63
2023-04-26T12:01:28.133Z,86892.91
2023-04-26T12:03:57.922Z,86896.13
2023-04-26T12:06:41.777Z,86900.44
2023-04-26T12:09:09.851Z,86896.47
2023-04-26T12:11:38.038Z,86900.16
2023-04-26T12:14:05.949Z,86897.81
2023-04-26T12:16:36.548Z,86894.59
2023-04-26T12:19:08.109Z,86891.50
2023-04-26T12:21:43.464Z,86892.28
2023-04-26T12:24:24.383Z,86884.34
2023-04-26T12:26:51.836Z,86879.25
2023-04-26T12:29:19.523Z,86875.56
2023-04-26T12:31:47.493Z,86877.75
2023-04-26T12:34:14.857Z,86877.00
2023-04-26T12:36:42.613Z,86882.06
2023-04-26T12:39:11.757Z,86872.03
2023-04-26T12:41:39.618Z,86865.88
2023-04-26T12:44:08.459Z,86866.19
2023-04-26T12:46:36.686Z,86869.38
2023-04-26T12:49:04.997Z,86868.19
2023-04-26T12:51:32.589Z,86873.00
2023-04-26T12:53:59.891Z,86867.88
2023-04-26T12:56:27.324Z,86872.34
2023-04-26T12:58:54.881Z,86865.56
2023-04-26T13:01:22.235Z,86871.41
2023-04-26T13:03:49.826Z,86866.09
2023-04-26T13:06:17.558Z,86865.91
2023-04-26T13:08:44.901Z,86867.38
2023-04-26T13:11:12.324Z,86863.31
2023-04-26T13:13:43.641Z,86859.59
2023-04-26T13:16:12.930Z,86860.34
2023-04-26T13:18:41.322Z,86863.31
2023-04-26T13:21:08.666Z,86861.91
2023-04-26T13:23:36.175Z,86870.16
2023-04-26T13:26:03.515Z,86874.53
2023-04-26T13:28:30.799Z,86870.44
2023-04-26T13:30:58.367Z,86860.53
2023-04-26T13:33:25.929Z,86872.63
2023-04-26T13:35:53.295Z,86865.19
2023-04-26T13:38:20.567Z,86866.19
2023-04-26T13:40:47.965Z,86863.63
2023-04-26T13:43:15.222Z,86863.53
2023-04-26T13:45:43.306Z,86861.00
2023-04-26T13:48:10.625Z,86857.75
2023-04-26T13:50:38.037Z,86862.84
2023-04-26T13:53:05.511Z,86857.25
2023-04-26T13:55:32.880Z,86865.25
2023-04-26T13:58:00.147Z,86858.38
2023-04-26T14:00:27.475Z,86862.69
2023-04-26T14:02:55.046Z,86862.34
2023-04-26T14:05:22.868Z,86859.53
2023-04-26T14:07:50.232Z,86864.78
2023-04-26T14:10:17.808Z,86853.97
2023-04-26T14:12:45.114Z,86853.88
2023-04-26T14:15:12.989Z,86856.06
2023-04-26T14:17:40.336Z,86855.09
2023-04-26T14:20:12.047Z,86847.63
2023-04-26T14:22:39.373Z,86848.19
2023-04-26T14:25:07.041Z,86855.44
2023-04-26T14:27:35.621Z,86851.06
2023-04-26T14:30:03.275Z,86849.78
2023-04-26T14:32:30.510Z,86856.50
2023-04-26T14:34:58.220Z,86854.91
2023-04-26T14:37:25.527Z,86852.84
2023-04-26T14:39:53.010Z,86852.56
2023-04-26T14:42:20.349Z,86862.47
2023-04-26T14:44:47.701Z,86855.22
2023-04-26T14:47:15.024Z,86857.22
2023-04-26T14:49:42.307Z,86855.69
2023-04-26T14:52:09.626Z,86860.09
2023-04-26T14:54:40.674Z,86854.03
2023-04-26T14:57:08.486Z,86847.22
2023-04-26T14:59:37.117Z,86844.22
2023-04-26T15:02:04.549Z,86838.56
2023-04-26T15:04:32.320Z,86837.41
2023-04-26T15:06:59.943Z,86843.03
2023-04-26T15:09:29.008Z,86846.31
2023-04-26T15:11:57.661Z,86848.03
2023-04-26T15:14:25.130Z,86849.84
2023-04-26T15:16:52.511Z,86851.81
2023-04-26T15:19:19.820Z,86852.75
2023-04-26T15:21:49.256Z,86850.53
2023-04-26T15:24:16.786Z,86848.78
2023-04-26T15:26:44.101Z,86853.41
2023-04-26T15:29:11.563Z,86846.84
2023-04-26T15:31:38.995Z,86836.97
2023-04-26T15:34:06.468Z,86835.50
2023-04-26T15:36:33.738Z,86835.25
2023-04-26T15:39:01.103Z,86835.09
2023-04-26T15:41:28.555Z,86830.13
2023-04-26T15:43:56.129Z,86835.78
2023-04-26T15:46:23.541Z,86830.69
2023-04-26T15:48:50.980Z,86836.22
2023-04-26T15:51:20.401Z,86827.63
2023-04-26T15:53:47.840Z,86833.59
2023-04-26T15:56:16.864Z,86837.59
2023-04-26T15:58:48.060Z,86833.41
2023-04-26T16:01:17.180Z,86833.06
2023-04-26T16:03:47.628Z,86837.50
2023-04-26T16:06:15.446Z,86837.50
2023-04-26T16:08:42.851Z,86837.50
2023-04-26T16:11:10.240Z,86846.03
2023-04-26T16:13:37.597Z,86845.09
2023-04-26T16:16:08.512Z,86836.13
2023-04-26T16:18:35.942Z,86839.75
2023-04-26T16:21:07.444Z,86842.72
2023-04-26T16:23:34.804Z,86848.38
2023-04-26T16:26:03.138Z,86848.56
2023-04-26T16:28:30.713Z,86854.00
2023-04-26T16:30:58.390Z,86842.47
2023-04-26T16:33:26.148Z,86852.34
2023-04-26T16:35:55.012Z,86843.31
2023-04-26T16:38:23.077Z,86851.13
2023-04-26T16:40:59.856Z,86847.84
2023-04-26T16:43:31.989Z,86845.97
2023-04-26T16:46:07.381Z,86851.47
2023-04-26T16:48:37.978Z,86857.47
2023-04-26T16:51:08.152Z,86868.06
2023-04-26T16:53:41.279Z,86867.63
2023-04-26T16:56:08.857Z,86866.03
2023-04-26T16:58:36.292Z,86862.31
2023-04-26T17:01:03.767Z,86864.91
2023-04-26T17:03:31.306Z,86862.53
2023-04-26T17:06:01.885Z,86868.59
2023-04-26T17:08:30.520Z,86864.97
2023-04-26T17:10:57.920Z,86881.78
2023-04-26T17:13:25.150Z,86883.81
2023-04-26T17:15:54.626Z,86886.09
2023-04-26T17:18:21.922Z,86895.81
2023-04-26T17:20:49.841Z,86903.81
2023-04-26T17:23:17.313Z,86899.00
2023-04-26T17:25:45.041Z,86913.06
2023-04-26T17:28:12.403Z,86910.44
2023-04-26T17:30:43.151Z,86922.22
2023-04-26T17:33:10.684Z,86926.88
2023-04-26T17:35:38.376Z,86928.09
2023-04-26T17:38:06.928Z,86934.22
2023-04-26T17:40:34.382Z,86943.38
2023-04-26T17:43:02.122Z,86939.97
2023-04-26T17:45:30.592Z,86944.25
2023-04-26T17:47:58.262Z,86950.13
2023-04-26T17:50:25.508Z,86952.38
2023-04-26T17:52:52.915Z,86962.97
2023-04-26T17:55:20.305Z,86960.66
2023-04-26T17:57:47.768Z,86958.44
2023-04-26T18:00:15.611Z,86967.41
2023-04-26T18:02:48.899Z,86967.97
2023-04-26T18:05:20.790Z,86974.03
2023-04-26T18:07:50.817Z,86973.75
2023-04-26T18:10:18.212Z,86967.00
2023-04-26T18:12:45.633Z,86968.47
2023-04-26T18:15:14.260Z,86974.53
2023-04-26T18:17:42.151Z,86974.28
2023-04-26T18:20:10.162Z,86977.09
2023-04-26T18:22:37.411Z,86974.44
2023-04-26T18:25:08.636Z,86971.88
2023-04-26T18:27:35.907Z,86971.53
2023-04-26T18:30:04.701Z,86971.13
2023-04-26T18:32:32.368Z,86975.28
2023-04-26T18:35:00.955Z,86977.28
2023-04-26T18:37:28.570Z,86982.56
2023-04-26T18:39:55.882Z,86981.88
2023-04-26T18:42:23.128Z,86987.63
2023-04-26T18:44:50.586Z,86987.22
2023-04-26T18:47:17.919Z,86992.97
2023-04-26T18:49:45.165Z,86997.53
2023-04-26T18:52:12.525Z,87000.19
2023-04-26T18:54:39.794Z,87008.13
2023-04-26T18:57:07.070Z,87021.38
2023-04-26T18:59:34.333Z,87024.06
2023-04-26T19:02:01.775Z,87022.53
2023-04-26T19:04:29.296Z,87035.75
2023-04-26T19:06:56.939Z,87029.38
2023-04-26T19:09:24.354Z,87038.06
2023-04-26T19:11:51.624Z,87034.72
2023-04-26T19:14:19.064Z,87041.19
2023-04-26T19:16:46.570Z,87041.94
2023-04-26T19:19:13.851Z,87049.88
2023-04-26T19:21:41.104Z,87049.56
2023-04-26T19:24:08.661Z,87054.06
2023-04-26T19:26:37.845Z,87068.44
2023-04-26T19:29:07.004Z,87060.53
2023-04-26T19:31:34.876Z,87061.66
2023-04-26T19:34:02.703Z,87071.09
2023-04-26T19:36:30.220Z,87073.00
2023-04-26T19:38:58.273Z,87068.88
2023-04-26T19:41:28.264Z,87074.16
2023-04-26T19:43:56.092Z,87068.88
2023-04-26T19:46:23.887Z,87074.56
2023-04-26T19:48:51.598Z,87076.09
2023-04-26T19:51:19.227Z,87082.50
2023-04-26T19:53:46.828Z,87084.00
2023-04-26T19:56:14.549Z,87082.88
2023-04-26T19:58:42.250Z,87086.69
2023-04-26T20:01:10.249Z,87085.59
2023-04-26T20:03:37.867Z,87089.00
2023-04-26T20:06:05.754Z,87087.47
2023-04-26T20:08:34.621Z,87092.75
2023-04-26T20:11:04.822Z,87087.13
2023-04-26T20:13:32.769Z,87086.75
2023-04-26T20:16:00.184Z,87086.41
2023-04-26T20:18:27.603Z,87090.19
2023-04-26T20:20:54.960Z,87090.91
2023-04-26T20:23:22.249Z,87095.06
2023-04-26T20:25:51.308Z,87105.63
2023-04-26T20:28:18.963Z,87106.00
2023-04-26T20:30:46.565Z,87106.00
2023-04-26T20:33:14.023Z,87104.50
2023-04-26T20:35:41.576Z,87109.38
2023-04-26T20:38:09.252Z,87114.31
2023-04-26T20:40:36.806Z,87116.19
2023-04-26T20:43:04.569Z,87125.22
2023-04-26T20:45:32.399Z,87128.97
2023-04-26T20:48:00.133Z,87123.72
2023-04-26T20:50:27.982Z,87127.09
2023-04-26T20:52:55.719Z,87123.34
2023-04-26T20:55:23.383Z,87136.88
2023-04-26T20:57:51.070Z,87142.50
2023-04-26T21:00:19.030Z,87143.25
2023-04-26T21:02:46.765Z,87141.72
2023-04-26T21:05:14.481Z,87149.63
2023-04-26T21:07:42.171Z,87146.97
2023-04-26T21:10:10.102Z,87156.00
2023-04-26T21:12:37.513Z,87162.75
2023-04-26T21:15:05.593Z,87154.81
2023-04-26T21:17:32.917Z,87155.16
2023-04-26T21:20:00.299Z,87159.66
2023-04-26T21:22:27.723Z,87155.53
2023-04-26T21:24:55.002Z,87160.03
2023-04-26T21:27:22.411Z,87161.13
2023-04-26T21:29:49.928Z,87158.88
2023-04-26T21:32:17.515Z,87166.41
2023-04-26T21:34:44.927Z,87170.53
2023-04-26T21:37:12.592Z,87167.09
2023-04-26T21:39:40.332Z,87176.09
2023-04-26T21:42:07.985Z,87182.81
2023-04-26T21:44:35.714Z,87188.03
2023-04-26T21:47:03.467Z,87182.38
2023-04-26T21:49:31.106Z,87181.97
2023-04-26T21:51:58.692Z,87181.19
2023-04-26T21:54:26.493Z,87188.69
2023-04-26T21:56:54.119Z,87185.31
2023-04-26T21:59:21.981Z,87180.41
2023-04-26T22:01:49.711Z,87189.41
2023-04-26T22:04:18.256Z,87184.13
2023-04-26T22:06:46.097Z,87187.13
2023-04-26T22:09:13.856Z,87191.28
2023-04-26T22:11:41.655Z,87193.56
2023-04-26T22:14:09.307Z,87196.53
2023-04-26T22:16:36.994Z,87193.16
2023-04-26T22:19:13.874Z,87199.16
2023-04-26T22:21:41.947Z,87193.16
2023-04-26T22:24:09.765Z,87201.09
2023-04-26T22:26:37.395Z,87199.56
2023-04-26T22:29:04.998Z,87199.94
2023-04-26T22:31:32.604Z,87199.13
2023-04-26T22:34:00.199Z,87204.38
2023-04-26T22:36:27.894Z,87206.63
2023-04-26T22:38:55.417Z,87209.25
2023-04-26T22:41:23.042Z,87213.75
2023-04-26T22:43:52.748Z,87212.97
2023-04-26T22:46:20.936Z,87219.38
2023-04-26T22:48:48.665Z,87212.59
2023-04-26T22:51:16.361Z,87215.56
2023-04-26T22:53:43.966Z,87209.53
2023-04-26T22:56:11.785Z,87211.81
2023-04-26T22:58:42.844Z,87217.78
2023-04-26T23:01:10.788Z,87213.28
2023-04-26T23:03:38.633Z,87219.25
2023-04-26T23:06:06.745Z,87216.22
2023-04-26T23:08:34.561Z,87216.91
2023-04-26T23:11:06.398Z,87216.91
2023-04-26T23:13:34.416Z,87222.47
2023-04-26T23:16:02.717Z,87222.06
2023-04-26T23:18:30.679Z,87219.44
2023-04-26T23:20:58.307Z,87221.69
2023-04-26T23:23:26.863Z,87218.28
2023-04-26T23:25:54.421Z,87220.09
2023-04-26T23:28:21.969Z,87218.56
2023-04-26T23:30:49.830Z,87216.69
2023-04-26T23:33:17.440Z,87223.81
2023-04-26T23:35:45.039Z,87225.72
2023-04-26T23:38:12.992Z,87223.81
2023-04-26T23:40:40.648Z,87226.75
2023-04-26T23:43:08.638Z,87223.38
2023-04-26T23:45:36.658Z,87230.16
2023-04-26T23:48:04.551Z,87234.28
2023-04-26T23:50:32.267Z,87226.44
2023-04-26T23:53:00.065Z,87225.28
2023-04-26T23:55:27.788Z,87227.59
2023-04-26T23:57:55.352Z,87225.72
